sensor_id;sensor_type;location;lat;lon;timestamp;pressure;altitude;pressure_sealevel;temperature;humidity
70758;BME280;59316;52.964;7.102;2022-07-29T00:03:57;101952.66;;;12.27;100.00
70758;BME280;59316;52.964;7.102;2022-07-29T00:09:16;101943.25;;;12.23;100.00
70758;BME280;59316;52.964;7.102;2022-07-29T00:14:37;101940.09;;;12.32;100.00
70758;BME280;59316;52.964;7.102;2022-07-29T00:19:56;101919.88;;;12.33;100.00
70758;BME280;59316;52.964;7.102;2022-07-29T00:25:16;101925.69;;;12.23;100.00
70758;BME280;59316;52.964;7.102;2022-07-29T00:30:35;101910.94;;;12.21;100.00
70758;BME280;59316;52.964;7.102;2022-07-29T00:35:55;101894.75;;;12.12;100.00
70758;BME280;59316;52.964;7.102;2022-07-29T00:41:15;101885.31;;;12.08;100.00
70758;BME280;59316;52.964;7.102;2022-07-29T00:46:34;101877.63;;;12.05;100.00
70758;BME280;59316;52.964;7.102;2022-07-29T00:51:54;101871.09;;;11.96;100.00
70758;BME280;59316;52.964;7.102;2022-07-29T00:57:14;101904.00;;;11.88;100.00
70758;BME280;59316;52.964;7.102;2022-07-29T01:02:33;101877.13;;;11.83;100.00
70758;BME280;59316;52.964;7.102;2022-07-29T01:07:54;101881.63;;;11.80;100.00
70758;BME280;59316;52.964;7.102;2022-07-29T01:13:15;101857.44;;;11.90;100.00
70758;BME280;59316;52.964;7.102;2022-07-29T01:18:39;101853.09;;;11.89;100.00
70758;BME280;59316;52.964;7.102;2022-07-29T01:29:55;101833.34;;;11.98;100.00
70758;BME280;59316;52.964;7.102;2022-07-29T01:35:29;101829.16;;;12.09;100.00
70758;BME280;59316;52.964;7.102;2022-07-29T01:41:17;101832.19;;;12.18;100.00
70758;BME280;59316;52.964;7.102;2022-07-29T01:46:40;101844.03;;;12.25;100.00
70758;BME280;59316;52.964;7.102;2022-07-29T01:52:10;101822.16;;;12.24;100.00
70758;BME280;59316;52.964;7.102;2022-07-29T01:57:36;101816.06;;;12.24;100.00
70758;BME280;59316;52.964;7.102;2022-07-29T02:03:02;101797.81;;;12.21;100.00
70758;BME280;59316;52.964;7.102;2022-07-29T02:08:32;101796.88;;;12.22;100.00
70758;BME280;59316;52.964;7.102;2022-07-29T02:13:54;101804.19;;;12.17;100.00
70758;BME280;59316;52.964;7.102;2022-07-29T02:19:17;101804.09;;;12.18;100.00
70758;BME280;59316;52.964;7.102;2022-07-29T02:24:39;101787.13;;;12.24;100.00
70758;BME280;59316;52.964;7.102;2022-07-29T02:30:01;101802.81;;;12.25;100.00
70758;BME280;59316;52.964;7.102;2022-07-29T02:35:22;101811.63;;;12.24;100.00
70758;BME280;59316;52.964;7.102;2022-07-29T02:40:43;101776.19;;;12.30;100.00
70758;BME280;59316;52.964;7.102;2022-07-29T02:46:10;101781.38;;;12.32;100.00
70758;BME280;59316;52.964;7.102;2022-07-29T02:52:03;101768.13;;;12.33;100.00
70758;BME280;59316;52.964;7.102;2022-07-29T02:57:55;101766.63;;;12.29;100.00
70758;BME280;59316;52.964;7.102;2022-07-29T03:03:21;101756.94;;;12.29;100.00
70758;BME280;59316;52.964;7.102;2022-07-29T03:08:42;101766.63;;;12.29;100.00
70758;BME280;59316;52.964;7.102;2022-07-29T03:14:04;101756.94;;;12.29;100.00
70758;BME280;59316;52.964;7.102;2022-07-29T03:19:25;101761.16;;;12.32;100.00
70758;BME280;59316;52.964;7.102;2022-07-29T03:24:46;101763.53;;;12.37;100.00
70758;BME280;59316;52.964;7.102;2022-07-29T03:30:07;101761.09;;;12.48;100.00
70758;BME280;59316;52.964;7.102;2022-07-29T03:35:27;101766.72;;;12.42;100.00
70758;BME280;59316;52.964;7.102;2022-07-29T03:40:51;101762.97;;;12.46;100.00
70758;BME280;59316;52.964;7.102;2022-07-29T03:46:15;101762.31;;;12.42;100.00
70758;BME280;59316;52.964;7.102;2022-07-29T03:51:35;101756.00;;;12.45;100.00
70758;BME280;59316;52.964;7.102;2022-07-29T03:56:58;101759.28;;;12.49;100.00
70758;BME280;59316;52.964;7.102;2022-07-29T04:02:19;101760.88;;;12.51;100.00
70758;BME280;59316;52.964;7.102;2022-07-29T04:07:43;101769.06;;;12.46;100.00
70758;BME280;59316;52.964;7.102;2022-07-29T04:13:03;101765.38;;;12.49;100.00
70758;BME280;59316;52.964;7.102;2022-07-29T04:23:41;101771.41;;;12.51;nan
70758;BME280;59316;52.964;7.102;2022-07-29T04:29:01;101756.56;;;12.50;nan
70758;BME280;59316;52.964;7.102;2022-07-29T04:34:21;101763.41;;;12.53;nan
70758;BME280;59316;52.964;7.102;2022-07-29T04:39:40;101770.00;;;12.60;nan
70758;BME280;59316;52.964;7.102;2022-07-29T04:44:59;101763.50;;;12.66;nan
70758;BME280;59316;52.964;7.102;2022-07-29T04:50:19;101760.47;;;12.86;nan
70758;BME280;59316;52.964;7.102;2022-07-29T04:55:38;101761.00;;;12.91;nan
70758;BME280;59316;52.964;7.102;2022-07-29T05:00:58;101753.94;;;13.06;nan
70758;BME280;59316;52.964;7.102;2022-07-29T05:06:17;101769.69;;;13.21;nan
70758;BME280;59316;52.964;7.102;2022-07-29T05:11:36;101762.00;;;13.45;nan
70758;BME280;59316;52.964;7.102;2022-07-29T05:16:56;101767.56;;;13.68;nan
70758;BME280;59316;52.964;7.102;2022-07-29T05:22:15;101746.72;;;13.90;nan
70758;BME280;59316;52.964;7.102;2022-07-29T05:27:38;101752.22;;;14.13;nan
70758;BME280;59316;52.964;7.102;2022-07-29T05:32:57;101753.44;;;14.33;nan
70758;BME280;59316;52.964;7.102;2022-07-29T05:38:17;101778.78;;;14.74;nan
70758;BME280;59316;52.964;7.102;2022-07-29T05:43:37;101760.63;;;15.31;nan
70758;BME280;59316;52.964;7.102;2022-07-29T05:48:56;101747.13;;;15.59;nan
70758;BME280;59316;52.964;7.102;2022-07-29T05:54:16;101750.34;;;15.51;nan
70758;BME280;59316;52.964;7.102;2022-07-29T05:59:36;101749.03;;;15.45;nan
70758;BME280;59316;52.964;7.102;2022-07-29T06:04:56;101762.91;;;15.71;nan
70758;BME280;59316;52.964;7.102;2022-07-29T06:10:15;101761.94;;;15.97;nan
70758;BME280;59316;52.964;7.102;2022-07-29T06:15:35;101776.63;;;16.12;nan
70758;BME280;59316;52.964;7.102;2022-07-29T06:20:54;101746.81;;;16.33;nan
70758;BME280;59316;52.964;7.102;2022-07-29T06:26:14;101754.28;;;16.50;nan
70758;BME280;59316;52.964;7.102;2022-07-29T06:31:34;101769.09;;;16.53;nan
70758;BME280;59316;52.964;7.102;2022-07-29T06:36:53;101780.97;;;16.70;nan
70758;BME280;59316;52.964;7.102;2022-07-29T06:42:13;101784.81;;;16.88;nan
70758;BME280;59316;52.964;7.102;2022-07-29T06:47:34;101770.97;;;16.85;nan
70758;BME280;59316;52.964;7.102;2022-07-29T06:52:53;101789.19;;;16.78;nan
70758;BME280;59316;52.964;7.102;2022-07-29T06:58:13;101797.47;;;16.74;nan
70758;BME280;59316;52.964;7.102;2022-07-29T07:03:33;101765.22;;;16.91;nan
70758;BME280;59316;52.964;7.102;2022-07-29T07:08:52;101785.22;;;16.61;nan
70758;BME280;59316;52.964;7.102;2022-07-29T07:14:12;101790.13;;;16.77;nan
70758;BME280;59316;52.964;7.102;2022-07-29T07:19:31;101787.59;;;17.10;nan
70758;BME280;59316;52.964;7.102;2022-07-29T07:24:51;101790.78;;;17.25;nan
70758;BME280;59316;52.964;7.102;2022-07-29T07:30:11;101780.84;;;17.71;nan
70758;BME280;59316;52.964;7.102;2022-07-29T07:35:32;101779.97;;;18.02;nan
70758;BME280;59316;52.964;7.102;2022-07-29T07:40:51;101797.66;;;18.13;nan
70758;BME280;59316;52.964;7.102;2022-07-29T07:46:11;101782.31;;;17.96;nan
70758;BME280;59316;52.964;7.102;2022-07-29T07:51:31;101771.69;;;17.96;nan
70758;BME280;59316;52.964;7.102;2022-07-29T07:56:50;101776.75;;;18.30;nan
70758;BME280;59316;52.964;7.102;2022-07-29T08:02:10;101777.63;;;18.81;nan
70758;BME280;59316;52.964;7.102;2022-07-29T08:07:29;101772.28;;;19.31;nan
70758;BME280;59316;52.964;7.102;2022-07-29T08:12:49;101762.75;;;19.58;nan
70758;BME280;59316;52.964;7.102;2022-07-29T08:18:08;101765.81;;;19.93;nan
70758;BME280;59316;52.964;7.102;2022-07-29T08:23:28;101760.41;;;20.22;nan
70758;BME280;59316;52.964;7.102;2022-07-29T08:28:48;101761.69;;;20.46;nan
70758;BME280;59316;52.964;7.102;2022-07-29T08:34:08;101760.75;;;20.65;nan
70758;BME280;59316;52.964;7.102;2022-07-29T08:39:27;101760.78;;;21.11;nan
70758;BME280;59316;52.964;7.102;2022-07-29T08:44:48;101759.47;;;20.97;nan
70758;BME280;59316;52.964;7.102;2022-07-29T08:50:08;101750.66;;;21.15;nan
70758;BME280;59316;52.964;7.102;2022-07-29T08:55:29;101757.28;;;20.92;nan
70758;BME280;59316;52.964;7.102;2022-07-29T09:00:51;101739.91;;;21.24;nan
70758;BME280;59316;52.964;7.102;2022-07-29T09:06:14;101741.72;;;21.42;nan
70758;BME280;59316;52.964;7.102;2022-07-29T09:11:34;101754.91;;;21.43;nan
70758;BME280;59316;52.964;7.102;2022-07-29T09:16:55;101755.66;;;21.54;nan
70758;BME280;59316;52.964;7.102;2022-07-29T09:22:28;101748.53;;;21.18;nan
70758;BME280;59316;52.964;7.102;2022-07-29T09:27:49;101743.00;;;21.38;nan
70758;BME280;59316;52.964;7.102;2022-07-29T09:33:10;101749.28;;;21.28;nan
70758;BME280;59316;52.964;7.102;2022-07-29T09:38:29;101743.75;;;21.66;nan
70758;BME280;59316;52.964;7.102;2022-07-29T09:43:56;101744.94;;;21.90;nan
70758;BME280;59316;52.964;7.102;2022-07-29T09:49:17;101743.91;;;22.17;nan
70758;BME280;59316;52.964;7.102;2022-07-29T09:54:37;101733.19;;;23.61;nan
70758;BME280;59316;52.964;7.102;2022-07-29T10:00:03;101739.59;;;24.24;nan
70758;BME280;59316;52.964;7.102;2022-07-29T10:05:30;101743.81;;;24.90;nan
70758;BME280;59316;52.964;7.102;2022-07-29T10:10:50;101731.91;;;24.61;nan
70758;BME280;59316;52.964;7.102;2022-07-29T10:16:10;101715.66;;;24.94;nan
70758;BME280;59316;52.964;7.102;2022-07-29T10:21:30;101724.56;;;24.54;nan
70758;BME280;59316;52.964;7.102;2022-07-29T10:26:50;101721.44;;;23.95;nan
70758;BME280;59316;52.964;7.102;2022-07-29T10:44:39;101719.31;;;23.49;nan
70758;BME280;59316;52.964;7.102;2022-07-29T10:50:01;101729.63;;;22.94;nan
70758;BME280;59316;52.964;7.102;2022-07-29T10:55:36;101724.19;;;22.45;nan
70758;BME280;59316;52.964;7.102;2022-07-29T11:00:57;101725.88;;;22.46;nan
70758;BME280;59316;52.964;7.102;2022-07-29T11:23:23;101738.63;;;21.99;nan
70758;BME280;59316;52.964;7.102;2022-07-29T11:34:29;101739.06;;;22.47;nan
70758;BME280;59316;52.964;7.102;2022-07-29T11:45:18;101736.94;;;22.67;nan
70758;BME280;59316;52.964;7.102;2022-07-29T11:50:40;101735.94;;;22.60;nan
70758;BME280;59316;52.964;7.102;2022-07-29T11:56:00;101730.94;;;22.73;nan
70758;BME280;59316;52.964;7.102;2022-07-29T12:01:20;101725.75;;;22.64;nan
70758;BME280;59316;52.964;7.102;2022-07-29T12:06:40;101718.78;;;22.36;nan
70758;BME280;59316;52.964;7.102;2022-07-29T12:12:00;101719.47;;;22.04;nan
70758;BME280;59316;52.964;7.102;2022-07-29T12:22:51;101700.41;;;21.72;nan
70758;BME280;59316;52.964;7.102;2022-07-29T12:28:13;101698.69;;;21.63;nan
70758;BME280;59316;52.964;7.102;2022-07-29T12:33:33;101697.50;;;21.57;nan
70758;BME280;59316;52.964;7.102;2022-07-29T12:38:53;101710.91;;;21.66;nan
70758;BME280;59316;52.964;7.102;2022-07-29T12:44:13;101714.41;;;21.92;nan
70758;BME280;59316;52.964;7.102;2022-07-29T12:49:32;101709.50;;;22.14;nan
70758;BME280;59316;52.964;7.102;2022-07-29T12:54:52;101712.28;;;22.39;nan
70758;BME280;59316;52.964;7.102;2022-07-29T13:00:12;101706.22;;;22.29;nan
70758;BME280;59316;52.964;7.102;2022-07-29T13:05:42;101706.63;;;22.42;nan
70758;BME280;59316;52.964;7.102;2022-07-29T13:11:02;101705.56;;;22.35;nan
70758;BME280;59316;52.964;7.102;2022-07-29T13:16:22;101705.19;;;22.21;nan
70758;BME280;59316;52.964;7.102;2022-07-29T13:21:42;101711.69;;;22.19;nan
70758;BME280;59316;52.964;7.102;2022-07-29T13:27:01;101707.81;;;22.13;nan
70758;BME280;59316;52.964;7.102;2022-07-29T13:32:21;101696.03;;;22.24;nan
70758;BME280;59316;52.964;7.102;2022-07-29T13:37:41;101696.50;;;22.27;nan
70758;BME280;59316;52.964;7.102;2022-07-29T13:43:00;101696.66;;;22.18;nan
70758;BME280;59316;52.964;7.102;2022-07-29T13:48:20;101696.03;;;22.24;nan
70758;BME280;59316;52.964;7.102;2022-07-29T13:53:40;101694.63;;;22.54;nan
70758;BME280;59316;52.964;7.102;2022-07-29T13:58:59;101702.09;;;23.18;nan
70758;BME280;59316;52.964;7.102;2022-07-29T14:04:19;101693.53;;;24.29;nan
70758;BME280;59316;52.964;7.102;2022-07-29T14:09:38;101690.28;;;24.96;nan
70758;BME280;59316;52.964;7.102;2022-07-29T14:14:58;101695.19;;;25.54;nan
70758;BME280;59316;52.964;7.102;2022-07-29T14:20:18;101687.31;;;25.29;nan
70758;BME280;59316;52.964;7.102;2022-07-29T14:25:38;101677.38;;;25.15;nan
70758;BME280;59316;52.964;7.102;2022-07-29T14:30:58;101676.66;;;25.21;nan
70758;BME280;59316;52.964;7.102;2022-07-29T14:36:18;101680.50;;;24.49;nan
70758;BME280;59316;52.964;7.102;2022-07-29T14:41:37;101676.81;;;24.81;nan
70758;BME280;59316;52.964;7.102;2022-07-29T14:46:58;101672.22;;;24.59;nan
70758;BME280;59316;52.964;7.102;2022-07-29T14:52:18;101665.94;;;24.12;nan
70758;BME280;59316;52.964;7.102;2022-07-29T14:57:38;101671.06;;;23.82;nan
70758;BME280;59316;52.964;7.102;2022-07-29T15:03:01;101675.97;;;23.53;nan
70758;BME280;59316;52.964;7.102;2022-07-29T15:08:22;101677.38;;;24.05;nan
70758;BME280;59316;52.964;7.102;2022-07-29T15:13:41;101674.41;;;25.48;nan
70758;BME280;59316;52.964;7.102;2022-07-29T15:19:03;101673.84;;;26.27;nan
70758;BME280;59316;52.964;7.102;2022-07-29T15:24:23;101675.44;;;27.23;nan
70758;BME280;59316;52.964;7.102;2022-07-29T15:29:43;101664.41;;;28.23;nan
70758;BME280;59316;52.964;7.102;2022-07-29T15:35:03;101673.59;;;27.94;nan
70758;BME280;59316;52.964;7.102;2022-07-29T15:40:23;101661.63;;;27.33;nan
70758;BME280;59316;52.964;7.102;2022-07-29T15:45:43;101657.81;;;26.56;nan
70758;BME280;59316;52.964;7.102;2022-07-29T15:51:03;101662.28;;;25.52;nan
70758;BME280;59316;52.964;7.102;2022-07-29T15:56:23;101657.84;;;25.44;nan
70758;BME280;59316;52.964;7.102;2022-07-29T16:01:43;101648.66;;;25.98;nan
70758;BME280;59316;52.964;7.102;2022-07-29T16:07:03;101663.78;;;26.14;nan
70758;BME280;59316;52.964;7.102;2022-07-29T16:12:22;101644.63;;;27.61;nan
70758;BME280;59316;52.964;7.102;2022-07-29T16:17:42;101658.59;;;26.71;nan
70758;BME280;59316;52.964;7.102;2022-07-29T16:23:02;101648.09;;;27.26;nan
70758;BME280;59316;52.964;7.102;2022-07-29T16:28:21;101655.13;;;27.49;nan
70758;BME280;59316;52.964;7.102;2022-07-29T16:33:41;101645.84;;;27.58;nan
70758;BME280;59316;52.964;7.102;2022-07-29T16:39:00;101646.16;;;27.77;nan
70758;BME280;59316;52.964;7.102;2022-07-29T16:44:20;101642.63;;;27.41;nan
70758;BME280;59316;52.964;7.102;2022-07-29T16:49:39;101639.16;;;27.19;nan
70758;BME280;59316;52.964;7.102;2022-07-29T16:54:59;101650.63;;;26.78;nan
70758;BME280;59316;52.964;7.102;2022-07-29T17:00:20;101640.97;;;26.69;nan
70758;BME280;59316;52.964;7.102;2022-07-29T17:05:39;101639.72;;;26.28;nan
70758;BME280;59316;52.964;7.102;2022-07-29T17:10:59;101640.22;;;26.16;nan
70758;BME280;59316;52.964;7.102;2022-07-29T17:16:19;101641.81;;;25.66;nan
70758;BME280;59316;52.964;7.102;2022-07-29T17:21:38;101644.69;;;25.11;nan
70758;BME280;59316;52.964;7.102;2022-07-29T17:26:58;101642.53;;;24.92;nan
70758;BME280;59316;52.964;7.102;2022-07-29T17:32:17;101639.72;;;24.85;nan
70758;BME280;59316;52.964;7.102;2022-07-29T17:37:37;101639.38;;;24.65;nan
70758;BME280;59316;52.964;7.102;2022-07-29T17:42:57;101649.50;;;24.46;nan
70758;BME280;59316;52.964;7.102;2022-07-29T17:48:17;101647.34;;;24.10;nan
70758;BME280;59316;52.964;7.102;2022-07-29T17:53:38;101657.03;;;23.71;nan
70758;BME280;59316;52.964;7.102;2022-07-29T17:58:57;101649.22;;;23.45;nan
70758;BME280;59316;52.964;7.102;2022-07-29T18:04:17;101652.44;;;23.24;nan
70758;BME280;59316;52.964;7.102;2022-07-29T18:09:37;101653.41;;;22.90;nan
70758;BME280;59316;52.964;7.102;2022-07-29T18:14:56;101659.22;;;22.61;nan
70758;BME280;59316;52.964;7.102;2022-07-29T18:20:16;101660.06;;;22.18;nan
70758;BME280;59316;52.964;7.102;2022-07-29T18:25:36;101661.00;;;21.66;nan
70758;BME280;59316;52.964;7.102;2022-07-29T18:30:56;101662.63;;;21.15;nan
70758;BME280;59316;52.964;7.102;2022-07-29T18:36:17;101664.94;;;20.63;nan
70758;BME280;59316;52.964;7.102;2022-07-29T18:41:36;101662.59;;;20.14;nan
70758;BME280;59316;52.964;7.102;2022-07-29T18:46:56;101674.78;;;19.70;nan
70758;BME280;59316;52.964;7.102;2022-07-29T18:52:15;101673.16;;;19.29;nan
70758;BME280;59316;52.964;7.102;2022-07-29T18:57:35;101676.78;;;18.89;nan
70758;BME280;59316;52.964;7.102;2022-07-29T19:02:54;101686.94;;;18.55;nan
70758;BME280;59316;52.964;7.102;2022-07-29T19:08:14;101694.53;;;18.18;nan
70758;BME280;59316;52.964;7.102;2022-07-29T19:13:33;101697.41;;;17.84;nan
70758;BME280;59316;52.964;7.102;2022-07-29T19:18:53;101698.72;;;17.48;nan
70758;BME280;59316;52.964;7.102;2022-07-29T19:24:12;101702.81;;;17.19;nan
70758;BME280;59316;52.964;7.102;2022-07-29T19:29:32;101700.78;;;16.91;nan
70758;BME280;59316;52.964;7.102;2022-07-29T19:34:52;101704.19;;;16.59;nan
70758;BME280;59316;52.964;7.102;2022-07-29T19:40:12;101712.16;;;16.36;nan
70758;BME280;59316;52.964;7.102;2022-07-29T19:45:32;101716.63;;;16.13;nan
70758;BME280;59316;52.964;7.102;2022-07-29T19:50:51;101724.41;;;15.92;nan
70758;BME280;59316;52.964;7.102;2022-07-29T19:56:11;101729.63;;;15.80;nan
70758;BME280;59316;52.964;7.102;2022-07-29T20:01:30;101727.22;;;15.66;nan
70758;BME280;59316;52.964;7.102;2022-07-29T20:06:50;101728.13;;;15.53;nan
70758;BME280;59316;52.964;7.102;2022-07-29T20:12:10;101724.22;;;15.35;nan
70758;BME280;59316;52.964;7.102;2022-07-29T20:17:30;101728.06;;;15.06;nan
70758;BME280;59316;52.964;7.102;2022-07-29T20:22:49;101729.22;;;14.78;nan
70758;BME280;59316;52.964;7.102;2022-07-29T20:28:09;101722.59;;;14.59;nan
70758;BME280;59316;52.964;7.102;2022-07-29T20:33:29;101730.97;;;14.40;nan
70758;BME280;59316;52.964;7.102;2022-07-29T20:38:48;101740.38;;;14.19;nan
70758;BME280;59316;52.964;7.102;2022-07-29T20:44:07;101740.91;;;13.98;nan
70758;BME280;59316;52.964;7.102;2022-07-29T20:49:27;101744.91;;;13.91;nan
70758;BME280;59316;52.964;7.102;2022-07-29T20:54:47;101737.38;;;13.72;nan
70758;BME280;59316;52.964;7.102;2022-07-29T21:00:07;101738.69;;;13.79;nan
70758;BME280;59316;52.964;7.102;2022-07-29T21:05:27;101741.19;;;13.81;nan
70758;BME280;59316;52.964;7.102;2022-07-29T21:10:46;101739.31;;;13.70;nan
70758;BME280;59316;52.964;7.102;2022-07-29T21:16:07;101747.84;;;13.73;nan
70758;BME280;59316;52.964;7.102;2022-07-29T21:21:26;101747.41;;;13.67;nan
70758;BME280;59316;52.964;7.102;2022-07-29T21:26:46;101748.53;;;13.50;nan
70758;BME280;59316;52.964;7.102;2022-07-29T21:32:05;101749.78;;;13.44;nan
70758;BME280;59316;52.964;7.102;2022-07-29T21:37:25;101754.31;;;13.42;nan
70758;BME280;59316;52.964;7.102;2022-07-29T21:42:45;101746.41;;;13.42;nan
70758;BME280;59316;52.964;7.102;2022-07-29T21:48:05;101745.94;;;13.35;nan
70758;BME280;59316;52.964;7.102;2022-07-29T21:53:25;101746.63;;;13.24;nan
70758;BME280;59316;52.964;7.102;2022-07-29T21:58:44;101745.94;;;13.08;nan
70758;BME280;59316;52.964;7.102;2022-07-29T22:04:04;101741.84;;;12.89;nan
70758;BME280;59316;52.964;7.102;2022-07-29T22:09:24;101750.72;;;12.74;nan
70758;BME280;59316;52.964;7.102;2022-07-29T22:14:44;101742.66;;;12.62;nan
70758;BME280;59316;52.964;7.102;2022-07-29T22:20:04;101741.72;;;12.64;nan
70758;BME280;59316;52.964;7.102;2022-07-29T22:25:23;101738.59;;;12.71;nan
70758;BME280;59316;52.964;7.102;2022-07-29T22:30:43;101743.75;;;12.73;nan
70758;BME280;59316;52.964;7.102;2022-07-29T22:36:02;101747.91;;;12.62;nan
70758;BME280;59316;52.964;7.102;2022-07-29T22:41:22;101749.22;;;12.55;nan
70758;BME280;59316;52.964;7.102;2022-07-29T22:46:42;101739.84;;;12.51;nan
70758;BME280;59316;52.964;7.102;2022-07-29T22:52:01;101749.84;;;12.73;nan
70758;BME280;59316;52.964;7.102;2022-07-29T22:57:21;101741.63;;;12.92;nan
70758;BME280;59316;52.964;7.102;2022-07-29T23:02:41;101743.41;;;13.06;nan
70758;BME280;59316;52.964;7.102;2022-07-29T23:08:00;101738.56;;;13.13;nan
70758;BME280;59316;52.964;7.102;2022-07-29T23:13:20;101749.75;;;13.17;nan
70758;BME280;59316;52.964;7.102;2022-07-29T23:18:39;101738.78;;;13.10;nan
70758;BME280;59316;52.964;7.102;2022-07-29T23:23:59;101732.03;;;13.06;nan
70758;BME280;59316;52.964;7.102;2022-07-29T23:29:18;101734.94;;;13.01;nan
70758;BME280;59316;52.964;7.102;2022-07-29T23:34:38;101732.16;;;12.90;nan
70758;BME280;59316;52.964;7.102;2022-07-29T23:39:57;101727.03;;;12.74;nan
70758;BME280;59316;52.964;7.102;2022-07-29T23:45:17;101732.13;;;12.62;nan
70758;BME280;59316;52.964;7.102;2022-07-29T23:50:36;101720.75;;;12.48;nan
70758;BME280;59316;52.964;7.102;2022-07-29T23:55:56;101725.84;;;12.36;nan
